sensor_id;sensor_type;location;lat;lon;timestamp;P1;durP1;ratioP1;P2;durP2;ratioP2
22250;SDS011;59348;52.158;5.588;2023-02-28T00:00:08;4.40;;;2.70;;
22250;SDS011;59348;52.158;5.588;2023-02-28T00:02:36;9.00;;;3.00;;
22250;SDS011;59348;52.158;5.588;2023-02-28T00:05:04;6.22;;;2.60;;
22250;SDS011;59348;52.158;5.588;2023-02-28T00:07:31;8.05;;;2.58;;
22250;SDS011;59348;52.158;5.588;2023-02-28T00:09:59;6.10;;;2.60;;
22250;SDS011;59348;52.158;5.588;2023-02-28T00:12:26;4.68;;;2.33;;
22250;SDS011;59348;52.158;5.588;2023-02-28T00:14:53;6.47;;;2.45;;
22250;SDS011;59348;52.158;5.588;2023-02-28T00:17:22;6.32;;;2.50;;
22250;SDS011;59348;52.158;5.588;2023-02-28T00:19:50;4.45;;;2.30;;
22250;SDS011;59348;52.158;5.588;2023-02-28T00:22:20;3.47;;;1.90;;
22250;SDS011;59348;52.158;5.588;2023-02-28T00:24:47;4.63;;;2.35;;
22250;SDS011;59348;52.158;5.588;2023-02-28T00:27:15;4.78;;;2.10;;
22250;SDS011;59348;52.158;5.588;2023-02-28T00:29:42;4.53;;;2.05;;
22250;SDS011;59348;52.158;5.588;2023-02-28T00:32:09;4.70;;;2.38;;
22250;SDS011;59348;52.158;5.588;2023-02-28T00:34:38;5.65;;;2.10;;
22250;SDS011;59348;52.158;5.588;2023-02-28T00:37:05;4.45;;;2.03;;
22250;SDS011;59348;52.158;5.588;2023-02-28T00:39:34;4.07;;;2.20;;
22250;SDS011;59348;52.158;5.588;2023-02-28T00:42:02;4.72;;;1.98;;
22250;SDS011;59348;52.158;5.588;2023-02-28T00:44:29;3.70;;;2.00;;
22250;SDS011;59348;52.158;5.588;2023-02-28T00:46:57;4.80;;;2.05;;
22250;SDS011;59348;52.158;5.588;2023-02-28T00:49:25;5.47;;;2.00;;
22250;SDS011;59348;52.158;5.588;2023-02-28T00:51:53;8.45;;;2.45;;
22250;SDS011;59348;52.158;5.588;2023-02-28T00:54:21;5.53;;;2.10;;
22250;SDS011;59348;52.158;5.588;2023-02-28T00:56:49;2.58;;;1.90;;
22250;SDS011;59348;52.158;5.588;2023-02-28T00:59:17;3.97;;;2.17;;
22250;SDS011;59348;52.158;5.588;2023-02-28T01:01:45;4.15;;;2.03;;
22250;SDS011;59348;52.158;5.588;2023-02-28T01:04:12;4.60;;;2.30;;
22250;SDS011;59348;52.158;5.588;2023-02-28T01:06:40;4.85;;;2.20;;
22250;SDS011;59348;52.158;5.588;2023-02-28T01:09:08;6.43;;;2.03;;
22250;SDS011;59348;52.158;5.588;2023-02-28T01:11:36;4.28;;;1.98;;
22250;SDS011;59348;52.158;5.588;2023-02-28T01:14:04;5.13;;;2.28;;
22250;SDS011;59348;52.158;5.588;2023-02-28T01:16:31;6.63;;;2.20;;
22250;SDS011;59348;52.158;5.588;2023-02-28T01:18:58;5.32;;;2.10;;
22250;SDS011;59348;52.158;5.588;2023-02-28T01:21:26;8.93;;;2.63;;
22250;SDS011;59348;52.158;5.588;2023-02-28T01:23:55;4.22;;;2.20;;
22250;SDS011;59348;52.158;5.588;2023-02-28T01:26:24;5.25;;;2.20;;
22250;SDS011;59348;52.158;5.588;2023-02-28T01:28:52;6.32;;;2.22;;
22250;SDS011;59348;52.158;5.588;2023-02-28T01:31:20;4.05;;;1.90;;
22250;SDS011;59348;52.158;5.588;2023-02-28T01:33:47;6.18;;;2.30;;
22250;SDS011;59348;52.158;5.588;2023-02-28T01:36:16;3.80;;;2.10;;
22250;SDS011;59348;52.158;5.588;2023-02-28T01:38:43;5.22;;;2.20;;
22250;SDS011;59348;52.158;5.588;2023-02-28T01:41:14;3.15;;;1.95;;
22250;SDS011;59348;52.158;5.588;2023-02-28T01:46:26;4.15;;;2.60;;
22250;SDS011;59348;52.158;5.588;2023-02-28T01:48:54;5.50;;;2.40;;
22250;SDS011;59348;52.158;5.588;2023-02-28T01:51:24;7.35;;;2.30;;
22250;SDS011;59348;52.158;5.588;2023-02-28T01:53:54;5.15;;;2.47;;
22250;SDS011;59348;52.158;5.588;2023-02-28T01:56:23;4.88;;;2.17;;
22250;SDS011;59348;52.158;5.588;2023-02-28T01:58:53;7.47;;;2.28;;
22250;SDS011;59348;52.158;5.588;2023-02-28T02:01:21;5.13;;;2.30;;
22250;SDS011;59348;52.158;5.588;2023-02-28T02:03:51;6.70;;;2.50;;
22250;SDS011;59348;52.158;5.588;2023-02-28T02:09:28;3.85;;;2.33;;
22250;SDS011;59348;52.158;5.588;2023-02-28T02:11:56;5.25;;;2.30;;
22250;SDS011;59348;52.158;5.588;2023-02-28T02:17:22;4.97;;;2.33;;
22250;SDS011;59348;52.158;5.588;2023-02-28T02:19:59;6.55;;;2.83;;
22250;SDS011;59348;52.158;5.588;2023-02-28T02:22:37;7.18;;;2.40;;
22250;SDS011;59348;52.158;5.588;2023-02-28T02:25:12;6.00;;;2.53;;
22250;SDS011;59348;52.158;5.588;2023-02-28T02:27:47;9.23;;;3.35;;
22250;SDS011;59348;52.158;5.588;2023-02-28T02:30:25;6.13;;;3.10;;
22250;SDS011;59348;52.158;5.588;2023-02-28T02:33:05;9.50;;;3.95;;
22250;SDS011;59348;52.158;5.588;2023-02-28T02:35:37;6.43;;;2.90;;
22250;SDS011;59348;52.158;5.588;2023-02-28T02:38:08;6.78;;;2.65;;
22250;SDS011;59348;52.158;5.588;2023-02-28T02:40:38;4.72;;;2.10;;
22250;SDS011;59348;52.158;5.588;2023-02-28T02:43:11;4.90;;;2.63;;
22250;SDS011;59348;52.158;5.588;2023-02-28T02:45:42;8.68;;;2.75;;
22250;SDS011;59348;52.158;5.588;2023-02-28T02:48:12;4.70;;;2.28;;
22250;SDS011;59348;52.158;5.588;2023-02-28T02:50:43;5.63;;;2.80;;
22250;SDS011;59348;52.158;5.588;2023-02-28T02:53:11;4.80;;;2.33;;
22250;SDS011;59348;52.158;5.588;2023-02-28T02:55:40;7.50;;;2.83;;
22250;SDS011;59348;52.158;5.588;2023-02-28T03:09:56;5.80;;;2.25;;
22250;SDS011;59348;52.158;5.588;2023-02-28T03:12:26;5.25;;;2.50;;
22250;SDS011;59348;52.158;5.588;2023-02-28T03:26:41;4.18;;;2.47;;
22250;SDS011;59348;52.158;5.588;2023-02-28T03:29:11;4.45;;;2.60;;
22250;SDS011;59348;52.158;5.588;2023-02-28T03:43:28;9.85;;;3.50;;
22250;SDS011;59348;52.158;5.588;2023-02-28T03:45:56;8.65;;;3.97;;
22250;SDS011;59348;52.158;5.588;2023-02-28T04:00:20;6.13;;;3.30;;
22250;SDS011;59348;52.158;5.588;2023-02-28T04:02:48;6.20;;;3.50;;
22250;SDS011;59348;52.158;5.588;2023-02-28T04:05:18;6.70;;;3.20;;
22250;SDS011;59348;52.158;5.588;2023-02-28T04:16:48;4.68;;;2.80;;
22250;SDS011;59348;52.158;5.588;2023-02-28T04:19:17;5.55;;;3.28;;
22250;SDS011;59348;52.158;5.588;2023-02-28T04:33:29;6.22;;;3.10;;
22250;SDS011;59348;52.158;5.588;2023-02-28T04:47:40;8.48;;;2.30;;
22250;SDS011;59348;52.158;5.588;2023-02-28T04:50:09;2.75;;;2.00;;
22250;SDS011;59348;52.158;5.588;2023-02-28T05:07:17;3.65;;;2.00;;
22250;SDS011;59348;52.158;5.588;2023-02-28T05:09:45;5.40;;;2.20;;
22250;SDS011;59348;52.158;5.588;2023-02-28T05:12:12;3.90;;;2.17;;
22250;SDS011;59348;52.158;5.588;2023-02-28T05:14:39;5.35;;;2.22;;
22250;SDS011;59348;52.158;5.588;2023-02-28T05:17:07;4.47;;;2.10;;
22250;SDS011;59348;52.158;5.588;2023-02-28T05:19:35;3.15;;;2.10;;
22250;SDS011;59348;52.158;5.588;2023-02-28T05:22:02;3.25;;;2.10;;
22250;SDS011;59348;52.158;5.588;2023-02-28T05:24:31;3.33;;;2.28;;
22250;SDS011;59348;52.158;5.588;2023-02-28T05:26:58;3.85;;;2.17;;
22250;SDS011;59348;52.158;5.588;2023-02-28T05:29:26;6.75;;;2.30;;
22250;SDS011;59348;52.158;5.588;2023-02-28T05:31:53;4.05;;;2.30;;
22250;SDS011;59348;52.158;5.588;2023-02-28T05:34:20;3.47;;;2.00;;
22250;SDS011;59348;52.158;5.588;2023-02-28T05:36:47;3.45;;;2.17;;
22250;SDS011;59348;52.158;5.588;2023-02-28T05:39:15;3.25;;;2.15;;
22250;SDS011;59348;52.158;5.588;2023-02-28T05:41:43;4.68;;;2.45;;
22250;SDS011;59348;52.158;5.588;2023-02-28T05:44:11;3.92;;;2.08;;
22250;SDS011;59348;52.158;5.588;2023-02-28T05:46:38;2.72;;;2.05;;
22250;SDS011;59348;52.158;5.588;2023-02-28T05:49:05;4.00;;;2.38;;
22250;SDS011;59348;52.158;5.588;2023-02-28T05:51:33;2.53;;;2.10;;
22250;SDS011;59348;52.158;5.588;2023-02-28T05:54:01;4.28;;;2.50;;
22250;SDS011;59348;52.158;5.588;2023-02-28T05:56:28;3.72;;;2.17;;
22250;SDS011;59348;52.158;5.588;2023-02-28T05:58:57;2.53;;;2.13;;
22250;SDS011;59348;52.158;5.588;2023-02-28T06:01:30;5.22;;;2.25;;
22250;SDS011;59348;52.158;5.588;2023-02-28T06:03:58;5.53;;;2.35;;
22250;SDS011;59348;52.158;5.588;2023-02-28T06:06:26;4.55;;;2.40;;
22250;SDS011;59348;52.158;5.588;2023-02-28T06:08:54;3.55;;;2.15;;
22250;SDS011;59348;52.158;5.588;2023-02-28T06:11:22;4.20;;;2.50;;
22250;SDS011;59348;52.158;5.588;2023-02-28T06:13:53;7.40;;;2.78;;
22250;SDS011;59348;52.158;5.588;2023-02-28T06:16:22;3.65;;;2.65;;
22250;SDS011;59348;52.158;5.588;2023-02-28T06:18:49;4.22;;;2.65;;
22250;SDS011;59348;52.158;5.588;2023-02-28T06:21:17;7.93;;;3.10;;
22250;SDS011;59348;52.158;5.588;2023-02-28T06:23:46;6.05;;;3.10;;
22250;SDS011;59348;52.158;5.588;2023-02-28T06:26:13;6.20;;;2.88;;
22250;SDS011;59348;52.158;5.588;2023-02-28T06:28:40;5.80;;;3.05;;
22250;SDS011;59348;52.158;5.588;2023-02-28T06:31:08;6.07;;;2.80;;
22250;SDS011;59348;52.158;5.588;2023-02-28T06:33:37;7.07;;;3.03;;
22250;SDS011;59348;52.158;5.588;2023-02-28T06:36:05;9.27;;;3.10;;
22250;SDS011;59348;52.158;5.588;2023-02-28T06:38:33;4.18;;;2.78;;
22250;SDS011;59348;52.158;5.588;2023-02-28T06:41:00;4.05;;;2.72;;
22250;SDS011;59348;52.158;5.588;2023-02-28T06:43:29;4.35;;;2.70;;
22250;SDS011;59348;52.158;5.588;2023-02-28T06:45:58;5.05;;;2.80;;
22250;SDS011;59348;52.158;5.588;2023-02-28T06:48:26;6.03;;;2.80;;
22250;SDS011;59348;52.158;5.588;2023-02-28T06:51:02;4.65;;;2.90;;
22250;SDS011;59348;52.158;5.588;2023-02-28T06:53:29;3.90;;;2.70;;
22250;SDS011;59348;52.158;5.588;2023-02-28T06:55:56;4.00;;;2.88;;
22250;SDS011;59348;52.158;5.588;2023-02-28T07:01:20;5.85;;;3.17;;
22250;SDS011;59348;52.158;5.588;2023-02-28T07:03:49;4.57;;;3.35;;
22250;SDS011;59348;52.158;5.588;2023-02-28T07:09:01;5.35;;;3.53;;
22250;SDS011;59348;52.158;5.588;2023-02-28T07:11:29;6.22;;;3.50;;
22250;SDS011;59348;52.158;5.588;2023-02-28T07:13:57;5.43;;;2.95;;
22250;SDS011;59348;52.158;5.588;2023-02-28T07:16:24;3.80;;;3.17;;
22250;SDS011;59348;52.158;5.588;2023-02-28T07:18:52;6.20;;;3.10;;
22250;SDS011;59348;52.158;5.588;2023-02-28T07:21:20;4.68;;;3.28;;
22250;SDS011;59348;52.158;5.588;2023-02-28T07:23:47;6.07;;;3.10;;
22250;SDS011;59348;52.158;5.588;2023-02-28T07:26:16;6.57;;;3.22;;
22250;SDS011;59348;52.158;5.588;2023-02-28T07:28:44;6.28;;;2.88;;
22250;SDS011;59348;52.158;5.588;2023-02-28T07:31:13;3.83;;;2.80;;
22250;SDS011;59348;52.158;5.588;2023-02-28T07:33:40;4.68;;;2.90;;
22250;SDS011;59348;52.158;5.588;2023-02-28T07:36:09;5.43;;;3.03;;
22250;SDS011;59348;52.158;5.588;2023-02-28T07:38:40;7.80;;;3.70;;
22250;SDS011;59348;52.158;5.588;2023-02-28T07:41:07;6.63;;;3.70;;
22250;SDS011;59348;52.158;5.588;2023-02-28T07:43:36;4.80;;;3.45;;
22250;SDS011;59348;52.158;5.588;2023-02-28T07:46:04;6.47;;;3.25;;
22250;SDS011;59348;52.158;5.588;2023-02-28T07:48:31;6.30;;;3.22;;
22250;SDS011;59348;52.158;5.588;2023-02-28T07:50:59;7.40;;;3.10;;
22250;SDS011;59348;52.158;5.588;2023-02-28T07:53:27;3.58;;;2.90;;
22250;SDS011;59348;52.158;5.588;2023-02-28T07:55:55;5.63;;;2.67;;
22250;SDS011;59348;52.158;5.588;2023-02-28T07:58:22;4.25;;;3.05;;
22250;SDS011;59348;52.158;5.588;2023-02-28T08:00:51;4.85;;;2.80;;
22250;SDS011;59348;52.158;5.588;2023-02-28T08:03:19;6.20;;;2.55;;
22250;SDS011;59348;52.158;5.588;2023-02-28T08:05:47;3.90;;;2.50;;
22250;SDS011;59348;52.158;5.588;2023-02-28T08:08:14;6.40;;;2.95;;
22250;SDS011;59348;52.158;5.588;2023-02-28T08:10:42;5.75;;;2.47;;
22250;SDS011;59348;52.158;5.588;2023-02-28T08:13:10;7.18;;;2.67;;
22250;SDS011;59348;52.158;5.588;2023-02-28T08:15:37;3.17;;;2.47;;
22250;SDS011;59348;52.158;5.588;2023-02-28T08:18:06;7.50;;;3.10;;
22250;SDS011;59348;52.158;5.588;2023-02-28T08:20:33;7.75;;;3.67;;
22250;SDS011;59348;52.158;5.588;2023-02-28T08:23:00;8.60;;;3.20;;
22250;SDS011;59348;52.158;5.588;2023-02-28T08:25:27;8.13;;;3.22;;
22250;SDS011;59348;52.158;5.588;2023-02-28T08:27:55;8.07;;;3.20;;
22250;SDS011;59348;52.158;5.588;2023-02-28T08:30:22;3.75;;;2.90;;
22250;SDS011;59348;52.158;5.588;2023-02-28T08:32:49;5.18;;;2.58;;
22250;SDS011;59348;52.158;5.588;2023-02-28T08:35:18;3.92;;;2.50;;
22250;SDS011;59348;52.158;5.588;2023-02-28T08:37:47;4.63;;;2.47;;
22250;SDS011;59348;52.158;5.588;2023-02-28T08:40:14;4.55;;;2.40;;
22250;SDS011;59348;52.158;5.588;2023-02-28T08:42:43;3.08;;;2.35;;
22250;SDS011;59348;52.158;5.588;2023-02-28T08:45:10;4.28;;;2.30;;
22250;SDS011;59348;52.158;5.588;2023-02-28T08:47:38;4.07;;;2.42;;
22250;SDS011;59348;52.158;5.588;2023-02-28T08:50:05;5.03;;;2.40;;
22250;SDS011;59348;52.158;5.588;2023-02-28T08:52:34;3.15;;;2.10;;
22250;SDS011;59348;52.158;5.588;2023-02-28T08:55:03;3.63;;;2.22;;
22250;SDS011;59348;52.158;5.588;2023-02-28T08:57:31;3.25;;;2.25;;
22250;SDS011;59348;52.158;5.588;2023-02-28T08:59:58;4.18;;;1.92;;
22250;SDS011;59348;52.158;5.588;2023-02-28T09:02:26;2.60;;;1.80;;
22250;SDS011;59348;52.158;5.588;2023-02-28T09:04:54;6.80;;;2.10;;
22250;SDS011;59348;52.158;5.588;2023-02-28T09:07:21;3.15;;;1.70;;
22250;SDS011;59348;52.158;5.588;2023-02-28T09:09:49;2.75;;;1.42;;
22250;SDS011;59348;52.158;5.588;2023-02-28T09:12:20;2.72;;;1.30;;
22250;SDS011;59348;52.158;5.588;2023-02-28T09:14:48;2.28;;;1.40;;
22250;SDS011;59348;52.158;5.588;2023-02-28T09:17:15;1.85;;;1.13;;
22250;SDS011;59348;52.158;5.588;2023-02-28T09:19:43;2.13;;;1.35;;
22250;SDS011;59348;52.158;5.588;2023-02-28T09:22:10;3.17;;;0.90;;
22250;SDS011;59348;52.158;5.588;2023-02-28T09:24:38;1.40;;;1.10;;
22250;SDS011;59348;52.158;5.588;2023-02-28T09:27:06;4.03;;;1.10;;
22250;SDS011;59348;52.158;5.588;2023-02-28T09:29:34;3.45;;;0.90;;
22250;SDS011;59348;52.158;5.588;2023-02-28T09:32:01;1.45;;;1.13;;
22250;SDS011;59348;52.158;5.588;2023-02-28T09:34:30;1.55;;;1.05;;
22250;SDS011;59348;52.158;5.588;2023-02-28T09:36:58;1.73;;;1.10;;
22250;SDS011;59348;52.158;5.588;2023-02-28T09:39:25;1.88;;;1.10;;
22250;SDS011;59348;52.158;5.588;2023-02-28T09:41:54;2.55;;;1.23;;
22250;SDS011;59348;52.158;5.588;2023-02-28T09:44:26;1.80;;;1.20;;
22250;SDS011;59348;52.158;5.588;2023-02-28T09:46:56;1.42;;;1.17;;
22250;SDS011;59348;52.158;5.588;2023-02-28T09:49:27;1.92;;;1.30;;
22250;SDS011;59348;52.158;5.588;2023-02-28T09:51:56;2.05;;;1.10;;
22250;SDS011;59348;52.158;5.588;2023-02-28T09:54:26;3.83;;;1.45;;
22250;SDS011;59348;52.158;5.588;2023-02-28T09:56:55;3.05;;;1.30;;
22250;SDS011;59348;52.158;5.588;2023-02-28T09:59:31;2.55;;;1.30;;
22250;SDS011;59348;52.158;5.588;2023-02-28T10:02:02;2.13;;;1.30;;
22250;SDS011;59348;52.158;5.588;2023-02-28T10:04:37;2.00;;;1.10;;
22250;SDS011;59348;52.158;5.588;2023-02-28T10:07:06;2.47;;;1.23;;
22250;SDS011;59348;52.158;5.588;2023-02-28T10:09:42;1.27;;;1.15;;
22250;SDS011;59348;52.158;5.588;2023-02-28T10:12:11;3.45;;;1.20;;
22250;SDS011;59348;52.158;5.588;2023-02-28T10:14:39;1.27;;;1.10;;
22250;SDS011;59348;52.158;5.588;2023-02-28T10:17:10;3.58;;;1.10;;
22250;SDS011;59348;52.158;5.588;2023-02-28T10:19:39;1.23;;;1.10;;
22250;SDS011;59348;52.158;5.588;2023-02-28T10:22:09;2.92;;;1.10;;
22250;SDS011;59348;52.158;5.588;2023-02-28T10:24:39;1.33;;;1.05;;
22250;SDS011;59348;52.158;5.588;2023-02-28T10:27:12;1.27;;;1.17;;
22250;SDS011;59348;52.158;5.588;2023-02-28T10:29:42;1.15;;;0.98;;
22250;SDS011;59348;52.158;5.588;2023-02-28T10:32:10;1.10;;;0.90;;
22250;SDS011;59348;52.158;5.588;2023-02-28T10:34:38;1.75;;;1.10;;
22250;SDS011;59348;52.158;5.588;2023-02-28T10:37:05;1.27;;;1.15;;
22250;SDS011;59348;52.158;5.588;2023-02-28T10:39:34;1.33;;;1.00;;
22250;SDS011;59348;52.158;5.588;2023-02-28T10:42:02;2.17;;;1.02;;
22250;SDS011;59348;52.158;5.588;2023-02-28T10:44:30;1.30;;;1.00;;
22250;SDS011;59348;52.158;5.588;2023-02-28T10:46:58;2.63;;;1.00;;
22250;SDS011;59348;52.158;5.588;2023-02-28T10:49:27;2.13;;;1.00;;
22250;SDS011;59348;52.158;5.588;2023-02-28T10:51:55;1.77;;;1.20;;
22250;SDS011;59348;52.158;5.588;2023-02-28T10:54:28;1.75;;;1.40;;
22250;SDS011;59348;52.158;5.588;2023-02-28T10:57:05;1.55;;;1.10;;
22250;SDS011;59348;52.158;5.588;2023-02-28T10:59:33;2.92;;;1.20;;
22250;SDS011;59348;52.158;5.588;2023-02-28T11:02:02;2.08;;;1.30;;
22250;SDS011;59348;52.158;5.588;2023-02-28T11:04:32;3.55;;;1.38;;
22250;SDS011;59348;52.158;5.588;2023-02-28T11:07:03;3.97;;;1.50;;
22250;SDS011;59348;52.158;5.588;2023-02-28T11:09:32;2.25;;;1.30;;
22250;SDS011;59348;52.158;5.588;2023-02-28T11:12:01;2.40;;;1.30;;
22250;SDS011;59348;52.158;5.588;2023-02-28T11:14:29;1.45;;;1.17;;
22250;SDS011;59348;52.158;5.588;2023-02-28T11:16:57;1.30;;;1.20;;
22250;SDS011;59348;52.158;5.588;2023-02-28T11:19:28;2.28;;;1.20;;
22250;SDS011;59348;52.158;5.588;2023-02-28T11:21:59;2.30;;;1.10;;
22250;SDS011;59348;52.158;5.588;2023-02-28T11:24:28;3.08;;;1.30;;
22250;SDS011;59348;52.158;5.588;2023-02-28T11:26:56;1.70;;;1.30;;
22250;SDS011;59348;52.158;5.588;2023-02-28T11:29:24;2.40;;;1.20;;
22250;SDS011;59348;52.158;5.588;2023-02-28T11:32:00;2.20;;;1.20;;
22250;SDS011;59348;52.158;5.588;2023-02-28T11:34:29;1.27;;;1.15;;
22250;SDS011;59348;52.158;5.588;2023-02-28T11:36:57;1.20;;;1.10;;
22250;SDS011;59348;52.158;5.588;2023-02-28T11:39:26;1.48;;;0.95;;
22250;SDS011;59348;52.158;5.588;2023-02-28T11:42:04;1.42;;;1.10;;
22250;SDS011;59348;52.158;5.588;2023-02-28T11:44:39;2.25;;;1.10;;
22250;SDS011;59348;52.158;5.588;2023-02-28T11:47:10;5.07;;;1.15;;
22250;SDS011;59348;52.158;5.588;2023-02-28T11:49:43;1.92;;;1.30;;
22250;SDS011;59348;52.158;5.588;2023-02-28T11:52:18;1.65;;;1.27;;
22250;SDS011;59348;52.158;5.588;2023-02-28T11:54:51;2.80;;;1.40;;
22250;SDS011;59348;52.158;5.588;2023-02-28T11:57:25;4.50;;;1.33;;
22250;SDS011;59348;52.158;5.588;2023-02-28T11:59:57;1.73;;;1.38;;
22250;SDS011;59348;52.158;5.588;2023-02-28T12:02:28;2.47;;;1.30;;
22250;SDS011;59348;52.158;5.588;2023-02-28T12:05:04;1.45;;;1.10;;
22250;SDS011;59348;52.158;5.588;2023-02-28T12:07:39;1.85;;;1.25;;
22250;SDS011;59348;52.158;5.588;2023-02-28T12:10:12;2.33;;;1.25;;
22250;SDS011;59348;52.158;5.588;2023-02-28T12:12:43;2.13;;;1.40;;
22250;SDS011;59348;52.158;5.588;2023-02-28T12:15:17;1.48;;;1.27;;
22250;SDS011;59348;52.158;5.588;2023-02-28T12:17:53;2.20;;;1.42;;
22250;SDS011;59348;52.158;5.588;2023-02-28T12:20:25;1.27;;;1.00;;
22250;SDS011;59348;52.158;5.588;2023-02-28T12:22:57;1.58;;;1.30;;
22250;SDS011;59348;52.158;5.588;2023-02-28T12:28:10;1.50;;;1.25;;
22250;SDS011;59348;52.158;5.588;2023-02-28T12:30:41;1.35;;;1.10;;
22250;SDS011;59348;52.158;5.588;2023-02-28T12:33:12;2.67;;;1.40;;
22250;SDS011;59348;52.158;5.588;2023-02-28T12:35:44;2.58;;;1.48;;
22250;SDS011;59348;52.158;5.588;2023-02-28T12:38:15;1.73;;;1.40;;
22250;SDS011;59348;52.158;5.588;2023-02-28T12:40:45;2.95;;;1.50;;
22250;SDS011;59348;52.158;5.588;2023-02-28T12:43:15;2.65;;;1.50;;
22250;SDS011;59348;52.158;5.588;2023-02-28T12:45:44;2.63;;;1.45;;
22250;SDS011;59348;52.158;5.588;2023-02-28T12:48:15;3.88;;;1.50;;
22250;SDS011;59348;52.158;5.588;2023-02-28T12:50:46;2.28;;;1.67;;
22250;SDS011;59348;52.158;5.588;2023-02-28T12:53:15;3.58;;;1.70;;
22250;SDS011;59348;52.158;5.588;2023-02-28T12:55:46;2.60;;;1.50;;
22250;SDS011;59348;52.158;5.588;2023-02-28T12:58:17;5.97;;;1.45;;
22250;SDS011;59348;52.158;5.588;2023-02-28T13:01:02;2.35;;;1.40;;
22250;SDS011;59348;52.158;5.588;2023-02-28T13:03:36;1.85;;;1.48;;
22250;SDS011;59348;52.158;5.588;2023-02-28T13:06:26;2.97;;;1.90;;
22250;SDS011;59348;52.158;5.588;2023-02-28T13:08:59;1.98;;;1.60;;
22250;SDS011;59348;52.158;5.588;2023-02-28T13:11:28;3.13;;;1.75;;
22250;SDS011;59348;52.158;5.588;2023-02-28T13:13:57;3.00;;;1.60;;
22250;SDS011;59348;52.158;5.588;2023-02-28T13:16:24;2.92;;;1.70;;
22250;SDS011;59348;52.158;5.588;2023-02-28T13:18:52;2.65;;;1.60;;
22250;SDS011;59348;52.158;5.588;2023-02-28T13:21:22;1.88;;;1.40;;
22250;SDS011;59348;52.158;5.588;2023-02-28T13:23:59;3.15;;;1.60;;
22250;SDS011;59348;52.158;5.588;2023-02-28T13:29:20;2.08;;;1.48;;
22250;SDS011;59348;52.158;5.588;2023-02-28T13:34:31;2.90;;;1.73;;
22250;SDS011;59348;52.158;5.588;2023-02-28T13:39:49;1.83;;;1.30;;
22250;SDS011;59348;52.158;5.588;2023-02-28T13:47:44;2.75;;;1.95;;
22250;SDS011;59348;52.158;5.588;2023-02-28T13:50:19;2.58;;;1.80;;
22250;SDS011;59348;52.158;5.588;2023-02-28T13:52:48;2.25;;;1.50;;
22250;SDS011;59348;52.158;5.588;2023-02-28T13:55:24;2.05;;;1.70;;
22250;SDS011;59348;52.158;5.588;2023-02-28T13:57:57;2.05;;;1.52;;
22250;SDS011;59348;52.158;5.588;2023-02-28T14:00:30;2.78;;;1.73;;
22250;SDS011;59348;52.158;5.588;2023-02-28T14:03:05;1.73;;;1.50;;
22250;SDS011;59348;52.158;5.588;2023-02-28T14:05:34;2.22;;;1.60;;
22250;SDS011;59348;52.158;5.588;2023-02-28T14:08:04;1.88;;;1.60;;
22250;SDS011;59348;52.158;5.588;2023-02-28T14:10:35;3.42;;;1.50;;
22250;SDS011;59348;52.158;5.588;2023-02-28T14:13:11;2.15;;;1.60;;
22250;SDS011;59348;52.158;5.588;2023-02-28T14:15:41;4.82;;;1.50;;
22250;SDS011;59348;52.158;5.588;2023-02-28T14:18:16;4.15;;;1.70;;
22250;SDS011;59348;52.158;5.588;2023-02-28T14:20:44;3.55;;;1.90;;
22250;SDS011;59348;52.158;5.588;2023-02-28T14:23:15;3.28;;;2.10;;
22250;SDS011;59348;52.158;5.588;2023-02-28T14:25:46;2.47;;;1.77;;
22250;SDS011;59348;52.158;5.588;2023-02-28T14:28:19;2.85;;;1.83;;
22250;SDS011;59348;52.158;5.588;2023-02-28T14:30:55;2.55;;;1.60;;
22250;SDS011;59348;52.158;5.588;2023-02-28T14:33:26;2.45;;;1.60;;
22250;SDS011;59348;52.158;5.588;2023-02-28T14:35:57;2.88;;;1.70;;
22250;SDS011;59348;52.158;5.588;2023-02-28T14:38:29;3.08;;;1.75;;
22250;SDS011;59348;52.158;5.588;2023-02-28T14:41:00;2.75;;;1.90;;
22250;SDS011;59348;52.158;5.588;2023-02-28T14:43:29;2.35;;;1.63;;
22250;SDS011;59348;52.158;5.588;2023-02-28T14:45:58;1.50;;;1.30;;
22250;SDS011;59348;52.158;5.588;2023-02-28T14:48:26;2.25;;;1.75;;
22250;SDS011;59348;52.158;5.588;2023-02-28T14:50:54;2.30;;;1.75;;
22250;SDS011;59348;52.158;5.588;2023-02-28T14:53:23;2.03;;;1.80;;
22250;SDS011;59348;52.158;5.588;2023-02-28T14:55:51;2.13;;;1.55;;
22250;SDS011;59348;52.158;5.588;2023-02-28T14:58:22;2.13;;;1.60;;
22250;SDS011;59348;52.158;5.588;2023-02-28T15:00:51;3.58;;;1.40;;
22250;SDS011;59348;52.158;5.588;2023-02-28T15:03:19;2.17;;;1.70;;
22250;SDS011;59348;52.158;5.588;2023-02-28T15:05:55;2.83;;;1.55;;
22250;SDS011;59348;52.158;5.588;2023-02-28T15:08:22;4.18;;;1.42;;
22250;SDS011;59348;52.158;5.588;2023-02-28T15:10:51;2.00;;;1.50;;
22250;SDS011;59348;52.158;5.588;2023-02-28T15:13:19;1.98;;;1.50;;
22250;SDS011;59348;52.158;5.588;2023-02-28T15:15:49;2.13;;;1.50;;
22250;SDS011;59348;52.158;5.588;2023-02-28T15:18:24;3.88;;;1.50;;
22250;SDS011;59348;52.158;5.588;2023-02-28T15:20:52;2.13;;;1.48;;
22250;SDS011;59348;52.158;5.588;2023-02-28T15:23:20;1.95;;;1.42;;
22250;SDS011;59348;52.158;5.588;2023-02-28T15:25:48;1.50;;;1.38;;
22250;SDS011;59348;52.158;5.588;2023-02-28T15:28:17;2.13;;;1.55;;
22250;SDS011;59348;52.158;5.588;2023-02-28T15:30:55;1.90;;;1.30;;
22250;SDS011;59348;52.158;5.588;2023-02-28T15:33:23;2.55;;;1.45;;
22250;SDS011;59348;52.158;5.588;2023-02-28T15:35:51;2.88;;;1.38;;
22250;SDS011;59348;52.158;5.588;2023-02-28T15:38:29;1.85;;;1.60;;
22250;SDS011;59348;52.158;5.588;2023-02-28T15:41:00;3.10;;;1.50;;
22250;SDS011;59348;52.158;5.588;2023-02-28T15:43:33;2.65;;;1.40;;
22250;SDS011;59348;52.158;5.588;2023-02-28T15:46:03;2.80;;;1.30;;
22250;SDS011;59348;52.158;5.588;2023-02-28T15:48:32;2.03;;;1.50;;
22250;SDS011;59348;52.158;5.588;2023-02-28T15:51:02;1.83;;;1.40;;
22250;SDS011;59348;52.158;5.588;2023-02-28T15:53:31;1.92;;;1.48;;
22250;SDS011;59348;52.158;5.588;2023-02-28T15:56:00;2.22;;;1.63;;
22250;SDS011;59348;52.158;5.588;2023-02-28T15:58:28;2.15;;;1.38;;
22250;SDS011;59348;52.158;5.588;2023-02-28T16:01:00;2.70;;;1.60;;
22250;SDS011;59348;52.158;5.588;2023-02-28T16:03:35;2.28;;;1.55;;
22250;SDS011;59348;52.158;5.588;2023-02-28T16:06:08;4.72;;;1.58;;
22250;SDS011;59348;52.158;5.588;2023-02-28T16:08:35;1.58;;;1.48;;
22250;SDS011;59348;52.158;5.588;2023-02-28T16:11:02;2.53;;;1.60;;
22250;SDS011;59348;52.158;5.588;2023-02-28T16:13:30;1.73;;;1.48;;
22250;SDS011;59348;52.158;5.588;2023-02-28T16:15:57;2.78;;;1.52;;
22250;SDS011;59348;52.158;5.588;2023-02-28T16:18:26;2.50;;;1.60;;
22250;SDS011;59348;52.158;5.588;2023-02-28T16:20:55;2.08;;;1.30;;
22250;SDS011;59348;52.158;5.588;2023-02-28T16:23:22;3.35;;;1.70;;
22250;SDS011;59348;52.158;5.588;2023-02-28T16:25:49;1.80;;;1.40;;
22250;SDS011;59348;52.158;5.588;2023-02-28T16:28:18;2.58;;;1.70;;
22250;SDS011;59348;52.158;5.588;2023-02-28T16:30:46;4.28;;;1.60;;
22250;SDS011;59348;52.158;5.588;2023-02-28T16:33:14;2.00;;;1.70;;
22250;SDS011;59348;52.158;5.588;2023-02-28T16:35:41;3.78;;;1.90;;
22250;SDS011;59348;52.158;5.588;2023-02-28T16:38:09;3.72;;;1.88;;
22250;SDS011;59348;52.158;5.588;2023-02-28T16:40:37;2.97;;;1.95;;
22250;SDS011;59348;52.158;5.588;2023-02-28T16:43:05;3.92;;;1.80;;
22250;SDS011;59348;52.158;5.588;2023-02-28T16:45:32;3.03;;;2.15;;
22250;SDS011;59348;52.158;5.588;2023-02-28T16:48:00;2.85;;;2.05;;
22250;SDS011;59348;52.158;5.588;2023-02-28T16:50:28;3.20;;;2.10;;
22250;SDS011;59348;52.158;5.588;2023-02-28T16:52:57;4.65;;;2.17;;
22250;SDS011;59348;52.158;5.588;2023-02-28T16:55:26;4.65;;;1.80;;
22250;SDS011;59348;52.158;5.588;2023-02-28T16:57:54;3.72;;;2.05;;
22250;SDS011;59348;52.158;5.588;2023-02-28T17:00:22;3.97;;;1.63;;
22250;SDS011;59348;52.158;5.588;2023-02-28T17:02:49;2.65;;;1.75;;
22250;SDS011;59348;52.158;5.588;2023-02-28T17:05:17;3.13;;;1.80;;